createdAt,value
2023-01-29T00:02:19.713Z,-0.57
2023-01-29T00:04:48.735Z,-0.56
2023-01-29T00:07:16.556Z,-0.55
2023-01-29T00:09:44.238Z,-0.51
2023-01-29T00:12:11.992Z,-0.46
2023-01-29T00:14:39.673Z,-0.44
2023-01-29T00:17:07.336Z,-0.43
2023-01-29T00:19:35.043Z,-0.44
2023-01-29T00:22:04.169Z,-0.42
2023-01-29T00:24:31.866Z,-0.41
2023-01-29T00:26:59.552Z,-0.54
2023-01-29T00:29:27.270Z,-0.62
2023-01-29T00:31:55.043Z,-0.75
2023-01-29T00:34:23.451Z,-0.77
2023-01-29T00:36:51.065Z,-0.75
2023-01-29T00:39:31.444Z,-0.84
2023-01-29T00:42:21.630Z,-0.86
2023-01-29T00:44:58.384Z,-0.85
2023-01-29T00:47:33.364Z,-0.85
2023-01-29T00:50:01.728Z,-0.88
2023-01-29T00:52:29.502Z,-0.91
2023-01-29T00:55:00.241Z,-0.90
2023-01-29T00:57:29.739Z,-0.83
2023-01-29T00:59:57.452Z,-0.79
2023-01-29T01:02:42.916Z,-0.85
2023-01-29T01:05:14.095Z,-0.94
2023-01-29T01:07:42.137Z,-0.97
2023-01-29T01:10:22.447Z,-1.00
2023-01-29T01:12:52.323Z,-1.05
2023-01-29T01:15:20.746Z,-1.08
2023-01-29T01:17:49.610Z,-1.09
2023-01-29T01:20:17.786Z,-1.10
2023-01-29T01:22:45.677Z,-1.05
2023-01-29T01:25:14.649Z,-1.00
2023-01-29T01:27:42.380Z,-1.06
2023-01-29T01:30:12.316Z,-1.04
2023-01-29T01:32:40.151Z,-1.01
2023-01-29T01:35:09.215Z,-0.94
2023-01-29T01:37:38.741Z,-0.88
2023-01-29T01:40:12.660Z,-0.84
2023-01-29T01:42:42.670Z,-0.81
2023-01-29T01:45:19.913Z,-0.79
2023-01-29T01:47:49.596Z,-0.75
2023-01-29T01:50:20.133Z,-0.71
2023-01-29T01:52:50.844Z,-0.71
2023-01-29T01:55:21.106Z,-0.68
2023-01-29T01:57:54.108Z,-0.77
2023-01-29T02:00:23.357Z,-0.84
2023-01-29T02:03:08.355Z,-0.81
2023-01-29T02:05:54.030Z,-0.80
2023-01-29T02:08:47.539Z,-0.79
2023-01-29T02:11:15.225Z,-0.77
2023-01-29T02:13:44.406Z,-0.75
2023-01-29T02:16:11.997Z,-0.74
2023-01-29T02:18:39.703Z,-0.74
2023-01-29T02:21:25.296Z,-0.69
2023-01-29T02:24:17.212Z,-0.65
2023-01-29T02:26:51.975Z,-0.69
2023-01-29T02:29:25.285Z,-0.66
2023-01-29T02:31:59.738Z,-0.63
2023-01-29T02:34:55.887Z,-0.65
2023-01-29T02:37:27.342Z,-0.66
2023-01-29T02:40:04.051Z,-0.70
2023-01-29T02:42:36.756Z,-0.70
2023-01-29T02:45:11.105Z,-0.66
2023-01-29T02:47:43.675Z,-0.68
2023-01-29T02:50:16.168Z,-0.72
2023-01-29T02:52:54.193Z,-0.70
2023-01-29T02:55:26.002Z,-0.68
2023-01-29T02:57:57.633Z,-0.71
2023-01-29T03:00:29.717Z,-0.70
2023-01-29T03:02:58.483Z,-0.65
2023-01-29T03:05:30.181Z,-0.66
2023-01-29T03:08:00.246Z,-0.65
2023-01-29T03:10:36.688Z,-0.63
2023-01-29T03:13:07.824Z,-0.65
2023-01-29T03:15:42.479Z,-0.67
2023-01-29T03:18:12.589Z,-0.72
2023-01-29T03:20:48.050Z,-0.71
2023-01-29T03:23:18.395Z,-0.70
2023-01-29T03:26:03.745Z,-0.70
2023-01-29T03:28:49.500Z,-0.74
2023-01-29T03:31:37.217Z,-0.76
2023-01-29T03:34:10.179Z,-0.71
2023-01-29T03:36:45.585Z,-0.68
2023-01-29T03:39:14.829Z,-0.72
2023-01-29T03:41:47.657Z,-0.70
2023-01-29T03:44:17.346Z,-0.67
2023-01-29T03:46:50.203Z,-0.66
2023-01-29T03:49:22.462Z,-0.66
2023-01-29T03:51:54.961Z,-0.67
2023-01-29T03:54:27.300Z,-0.62
2023-01-29T03:57:00.407Z,-0.61
2023-01-29T03:59:36.640Z,-0.63
2023-01-29T04:02:07.544Z,-0.73
2023-01-29T04:04:36.878Z,-0.70
2023-01-29T04:07:09.663Z,-0.75
2023-01-29T04:09:40.361Z,-0.73
2023-01-29T04:12:10.354Z,-0.73
2023-01-29T04:14:38.832Z,-0.71
2023-01-29T04:17:11.315Z,-0.68
2023-01-29T04:19:39.669Z,-0.69
2023-01-29T04:22:12.971Z,-0.69
2023-01-29T04:24:41.200Z,-0.68
2023-01-29T04:27:21.675Z,-0.69
2023-01-29T04:29:59.439Z,-0.74
2023-01-29T04:32:33.764Z,-0.78
2023-01-29T04:35:04.116Z,-0.77
2023-01-29T04:37:38.512Z,-0.73
2023-01-29T04:40:16.482Z,-0.70
2023-01-29T04:42:50.514Z,-0.66
2023-01-29T04:45:22.851Z,-0.63
2023-01-29T04:47:59.428Z,-0.62
2023-01-29T04:50:30.361Z,-0.64
2023-01-29T04:53:03.239Z,-0.70
2023-01-29T04:55:36.025Z,-0.81
2023-01-29T04:58:06.645Z,-0.75
2023-01-29T05:00:36.593Z,-0.69
2023-01-29T05:03:08.219Z,-0.67
2023-01-29T05:05:35.847Z,-0.67
2023-01-29T05:08:04.474Z,-0.68
2023-01-29T05:10:32.197Z,-0.71
2023-01-29T05:13:02.193Z,-0.83
2023-01-29T05:15:34.851Z,-0.90
2023-01-29T05:18:03.149Z,-0.84
2023-01-29T05:20:34.490Z,-0.85
2023-01-29T05:23:02.120Z,-0.81
2023-01-29T05:25:31.580Z,-0.77
2023-01-29T05:28:07.312Z,-0.76
2023-01-29T05:30:37.751Z,-0.76
2023-01-29T05:33:06.512Z,-0.75
2023-01-29T05:35:35.513Z,-0.79
2023-01-29T05:38:03.113Z,-0.83
2023-01-29T05:40:31.083Z,-0.82
2023-01-29T05:42:58.697Z,-0.78
2023-01-29T05:45:26.355Z,-0.76
2023-01-29T05:47:56.853Z,-0.72
2023-01-29T05:50:25.399Z,-0.70
2023-01-29T05:52:58.780Z,-0.71
2023-01-29T05:55:26.411Z,-0.72
2023-01-29T05:57:54.039Z,-0.76
2023-01-29T06:00:22.227Z,-0.79
2023-01-29T06:02:50.546Z,-0.79
2023-01-29T06:05:18.249Z,-0.77
2023-01-29T06:07:46.943Z,-0.81
2023-01-29T06:10:17.956Z,-0.83
2023-01-29T06:12:45.820Z,-0.82
2023-01-29T06:15:15.360Z,-0.79
2023-01-29T06:17:43.180Z,-0.84
2023-01-29T06:20:11.865Z,-0.83
2023-01-29T06:22:39.483Z,-0.85
2023-01-29T06:25:08.443Z,-0.84
2023-01-29T06:27:37.470Z,-0.84
2023-01-29T06:30:05.880Z,-0.91
2023-01-29T06:32:33.797Z,-0.95
2023-01-29T06:35:01.444Z,-0.95
2023-01-29T06:37:29.087Z,-1.00
2023-01-29T06:39:56.671Z,-0.99
2023-01-29T06:42:27.917Z,-0.93
2023-01-29T06:44:57.490Z,-0.92
2023-01-29T06:47:25.834Z,-0.91
2023-01-29T06:49:53.513Z,-0.86
2023-01-29T06:52:32.241Z,-0.86
2023-01-29T06:54:59.933Z,-0.86
2023-01-29T06:57:32.757Z,-0.86
2023-01-29T07:00:01.882Z,-0.84
2023-01-29T07:02:29.943Z,-0.82
2023-01-29T07:04:57.687Z,-0.80
2023-01-29T07:07:25.357Z,-0.82
2023-01-29T07:09:52.995Z,-0.80
2023-01-29T07:12:23.339Z,-0.82
2023-01-29T07:14:50.986Z,-0.79
2023-01-29T07:17:20.603Z,-0.76
2023-01-29T07:19:48.231Z,-0.79
2023-01-29T07:22:16.364Z,-0.89
2023-01-29T07:24:44.005Z,-0.94
2023-01-29T07:27:11.652Z,-0.99
2023-01-29T07:29:39.288Z,-0.97
2023-01-29T07:32:07.896Z,-0.96
2023-01-29T07:34:37.177Z,-0.90
2023-01-29T07:37:06.185Z,-0.88
2023-01-29T07:39:33.882Z,-0.86
2023-01-29T07:42:02.443Z,-0.87
2023-01-29T07:44:30.071Z,-0.85
2023-01-29T07:46:57.810Z,-0.85
2023-01-29T07:49:25.508Z,-0.80
2023-01-29T07:51:54.471Z,-0.75
2023-01-29T07:54:22.143Z,-0.76
2023-01-29T07:56:49.908Z,-0.79
2023-01-29T07:59:17.745Z,-0.77
2023-01-29T08:01:45.350Z,-0.70
2023-01-29T08:04:12.956Z,-0.71
2023-01-29T08:06:40.599Z,-0.67
2023-01-29T08:09:09.570Z,-0.74
2023-01-29T08:11:37.235Z,-0.72
2023-01-29T08:14:04.879Z,-0.78
2023-01-29T08:16:32.517Z,-0.76
2023-01-29T08:19:00.198Z,-0.67
2023-01-29T08:21:27.863Z,-0.58
2023-01-29T08:23:55.530Z,-0.58
2023-01-29T08:26:26.247Z,-0.63
2023-01-29T08:28:54.161Z,-0.62
2023-01-29T08:31:21.901Z,-0.57
2023-01-29T08:33:49.689Z,-0.58
2023-01-29T08:36:17.552Z,-0.53
2023-01-29T08:38:45.197Z,-0.53
2023-01-29T08:41:12.882Z,-0.60
2023-01-29T08:43:41.822Z,-0.65
2023-01-29T08:46:09.819Z,-0.78
2023-01-29T08:48:37.458Z,-0.80
2023-01-29T08:51:05.851Z,-0.86
2023-01-29T08:53:33.862Z,-0.82
2023-01-29T08:56:01.584Z,-0.76
2023-01-29T08:58:29.319Z,-0.66
2023-01-29T09:00:58.336Z,-0.63
2023-01-29T09:03:26.001Z,-0.57
2023-01-29T09:05:53.635Z,-0.49
2023-01-29T09:08:21.250Z,-0.41
2023-01-29T09:10:48.925Z,-0.35
2023-01-29T09:13:16.600Z,-0.33
2023-01-29T09:15:44.314Z,-0.27
2023-01-29T09:18:13.300Z,-0.35
2023-01-29T09:20:40.920Z,-0.27
2023-01-29T09:23:11.745Z,-0.51
2023-01-29T09:25:39.619Z,-0.63
2023-01-29T09:28:07.683Z,-0.73
2023-01-29T09:30:37.791Z,-0.61
2023-01-29T09:33:06.214Z,-0.52
2023-01-29T09:35:35.560Z,-0.51
2023-01-29T09:38:03.746Z,-0.44
2023-01-29T09:40:36.461Z,-0.64
2023-01-29T09:43:05.885Z,-0.59
2023-01-29T09:45:33.906Z,-0.55
2023-01-29T09:48:03.813Z,-0.48
2023-01-29T09:50:36.296Z,-0.45
2023-01-29T09:53:09.757Z,-0.36
2023-01-29T09:55:40.972Z,-0.39
2023-01-29T09:58:13.702Z,-0.38
2023-01-29T10:00:48.370Z,-0.30
2023-01-29T10:03:25.243Z,-0.29
2023-01-29T10:06:11.238Z,-0.32
2023-01-29T10:09:38.709Z,-0.24
2023-01-29T10:12:15.827Z,-0.22
2023-01-29T10:14:53.278Z,-0.27
2023-01-29T10:17:37.997Z,-0.39
2023-01-29T10:20:21.082Z,-0.42
2023-01-29T10:23:06.613Z,-0.40
2023-01-29T10:25:36.633Z,-0.29
2023-01-29T10:28:04.300Z,-0.30
2023-01-29T10:30:34.436Z,-0.26
2023-01-29T10:33:04.385Z,-0.23
2023-01-29T10:35:34.890Z,-0.25
2023-01-29T10:38:34.011Z,-0.15
2023-01-29T10:41:12.318Z,-0.07
2023-01-29T10:43:47.348Z,-0.06
2023-01-29T10:46:25.543Z,-0.07
2023-01-29T10:48:59.287Z,-0.09
2023-01-29T10:51:47.719Z,-0.07
2023-01-29T10:54:30.140Z,-0.02
2023-01-29T10:57:04.803Z,-0.01
2023-01-29T10:59:47.024Z,-0.06
2023-01-29T11:02:15.563Z,-0.07
2023-01-29T11:04:43.170Z,-0.06
2023-01-29T11:07:20.761Z,-0.09
2023-01-29T11:09:53.471Z,-0.13
2023-01-29T11:12:26.616Z,-0.12
2023-01-29T11:14:56.806Z,-0.19
2023-01-29T11:17:26.210Z,-0.35
2023-01-29T11:19:55.638Z,-0.23
2023-01-29T11:22:24.901Z,-0.08
2023-01-29T11:25:17.267Z,-0.04
2023-01-29T11:27:46.193Z,0.02
2023-01-29T11:30:21.754Z,0.07
2023-01-29T11:32:53.427Z,0.06
2023-01-29T11:35:23.090Z,0.07
2023-01-29T11:37:50.835Z,-0.07
2023-01-29T11:40:39.145Z,-0.20
2023-01-29T11:43:24.362Z,-0.09
2023-01-29T11:45:53.803Z,-0.05
2023-01-29T11:48:23.196Z,-0.06
2023-01-29T11:50:55.047Z,-0.18
2023-01-29T11:53:26.223Z,-0.21
2023-01-29T11:55:55.945Z,-0.17
2023-01-29T11:58:28.643Z,-0.17
2023-01-29T12:00:56.750Z,-0.16
2023-01-29T12:03:32.117Z,-0.18
2023-01-29T12:06:01.741Z,-0.10
2023-01-29T12:08:34.988Z,-0.10
2023-01-29T12:11:11.316Z,-0.11
2023-01-29T12:13:40.623Z,-0.09
2023-01-29T12:16:20.716Z,-0.08
2023-01-29T12:18:52.735Z,-0.19
2023-01-29T12:21:21.457Z,-0.07
2023-01-29T12:23:55.161Z,0.00
2023-01-29T12:26:28.426Z,0.07
2023-01-29T12:29:08.369Z,0.15
2023-01-29T12:31:38.203Z,0.19
2023-01-29T12:34:11.904Z,0.30
2023-01-29T12:36:43.057Z,0.33
2023-01-29T12:39:12.049Z,0.30
2023-01-29T12:41:46.115Z,0.05
2023-01-29T12:44:17.339Z,-0.18
2023-01-29T12:46:50.403Z,-0.30
2023-01-29T12:49:20.010Z,-0.33
2023-01-29T12:51:54.454Z,-0.41
2023-01-29T12:54:23.987Z,-0.42
2023-01-29T12:56:54.715Z,-0.32
2023-01-29T12:59:33.066Z,-0.34
2023-01-29T13:02:03.705Z,-0.39
2023-01-29T13:04:38.051Z,-0.21
2023-01-29T13:07:13.047Z,-0.17
2023-01-29T13:09:44.245Z,-0.06
2023-01-29T13:12:15.897Z,0.08
2023-01-29T13:14:47.193Z,0.14
2023-01-29T13:17:19.547Z,0.20
2023-01-29T13:19:51.079Z,0.19
2023-01-29T13:22:22.952Z,0.09
2023-01-29T13:25:03.629Z,0.08
2023-01-29T13:27:37.170Z,0.07
2023-01-29T13:30:05.606Z,0.07
2023-01-29T13:32:36.204Z,-0.01
2023-01-29T13:35:05.498Z,0.03
2023-01-29T13:37:34.552Z,0.02
2023-01-29T13:40:04.236Z,-0.06
2023-01-29T13:42:40.837Z,-0.02
2023-01-29T13:45:10.031Z,0.02
2023-01-29T13:47:40.086Z,0.01
2023-01-29T13:50:09.717Z,0.03
2023-01-29T13:52:42.923Z,0.02
2023-01-29T13:55:23.917Z,0.07
2023-01-29T13:57:57.137Z,0.12
2023-01-29T14:01:11.889Z,0.20
2023-01-29T14:04:04.067Z,0.14
2023-01-29T14:06:40.376Z,0.16
2023-01-29T14:09:49.662Z,0.17
2023-01-29T14:12:41.592Z,0.16
2023-01-29T14:15:21.441Z,0.09
2023-01-29T14:18:13.476Z,-0.02
2023-01-29T14:20:45.930Z,0.00
2023-01-29T14:23:24.110Z,0.12
2023-01-29T14:25:51.881Z,0.16
2023-01-29T14:28:23.815Z,0.17
2023-01-29T14:30:53.813Z,0.08
2023-01-29T14:33:35.722Z,0.07
2023-01-29T14:36:06.358Z,0.14
2023-01-29T14:38:34.428Z,0.18
2023-01-29T14:41:09.012Z,0.24
2023-01-29T14:43:36.818Z,0.24
2023-01-29T14:46:38.025Z,-0.05
2023-01-29T14:49:08.771Z,-0.02
2023-01-29T14:51:38.582Z,-0.17
2023-01-29T14:54:13.060Z,-0.22
2023-01-29T14:56:43.723Z,-0.16
2023-01-29T14:59:18.713Z,-0.05
2023-01-29T15:01:49.686Z,0.01
2023-01-29T15:04:22.418Z,0.11
2023-01-29T15:06:53.952Z,0.10
2023-01-29T15:09:36.537Z,0.14
2023-01-29T15:12:09.636Z,0.14
2023-01-29T15:14:40.717Z,-0.05
2023-01-29T15:17:18.617Z,-0.11
2023-01-29T15:19:49.551Z,-0.03
2023-01-29T15:22:18.535Z,0.04
2023-01-29T15:24:47.436Z,0.10
2023-01-29T15:27:17.227Z,0.12
2023-01-29T15:29:48.055Z,0.16
2023-01-29T15:32:20.532Z,0.09
2023-01-29T15:34:50.258Z,-0.06
2023-01-29T15:37:29.582Z,-0.19
2023-01-29T15:39:58.003Z,-0.13
2023-01-29T15:42:27.851Z,-0.16
2023-01-29T15:44:55.777Z,-0.16
2023-01-29T15:47:25.914Z,-0.09
2023-01-29T15:49:57.311Z,-0.19
2023-01-29T15:52:28.430Z,-0.40
2023-01-29T15:54:57.715Z,-0.43
2023-01-29T15:57:28.908Z,-0.32
2023-01-29T15:59:58.944Z,-0.23
2023-01-29T16:02:36.665Z,-0.19
2023-01-29T16:05:07.201Z,-0.22
2023-01-29T16:07:36.079Z,-0.25
2023-01-29T16:10:04.267Z,-0.48
2023-01-29T16:12:33.353Z,-0.38
2023-01-29T16:15:02.309Z,-0.32
2023-01-29T16:17:35.227Z,-0.33
2023-01-29T16:20:06.267Z,-0.29
2023-01-29T16:22:35.943Z,-0.24
2023-01-29T16:25:04.886Z,-0.41
2023-01-29T16:27:33.458Z,-0.42
2023-01-29T16:30:02.133Z,-0.39
2023-01-29T16:32:30.718Z,-0.45
2023-01-29T16:34:59.861Z,-0.41
2023-01-29T16:37:30.416Z,-0.40
2023-01-29T16:39:58.887Z,-0.44
2023-01-29T16:42:28.676Z,-0.47
2023-01-29T16:45:01.322Z,-0.44
2023-01-29T16:47:32.537Z,-0.40
2023-01-29T16:50:01.726Z,-0.36
2023-01-29T16:52:33.856Z,-0.33
2023-01-29T16:55:22.796Z,-0.32
2023-01-29T16:57:53.404Z,-0.33
2023-01-29T17:00:24.141Z,-0.31
2023-01-29T17:02:53.873Z,-0.27
2023-01-29T17:05:25.010Z,-0.32
2023-01-29T17:07:57.533Z,-0.38
2023-01-29T17:10:26.082Z,-0.41
2023-01-29T17:12:58.508Z,-0.53
2023-01-29T17:15:35.966Z,-0.58
2023-01-29T17:18:04.046Z,-0.58
2023-01-29T17:20:32.702Z,-0.55
2023-01-29T17:23:01.639Z,-0.51
2023-01-29T17:25:29.984Z,-0.46
2023-01-29T17:27:57.818Z,-0.46
2023-01-29T17:30:28.565Z,-0.46
2023-01-29T17:32:56.172Z,-0.46
2023-01-29T17:35:23.808Z,-0.46
2023-01-29T17:37:51.446Z,-0.44
2023-01-29T17:40:28.890Z,-0.39
2023-01-29T17:42:56.495Z,-0.40
2023-01-29T17:45:24.338Z,-0.40
2023-01-29T17:47:51.912Z,-0.39
2023-01-29T17:50:23.488Z,-0.43
2023-01-29T17:52:51.175Z,-0.44
2023-01-29T17:55:19.014Z,-0.43
2023-01-29T17:57:48.188Z,-0.46
2023-01-29T18:00:18.792Z,-0.56
2023-01-29T18:02:46.582Z,-0.58
2023-01-29T18:05:15.759Z,-0.64
2023-01-29T18:07:45.878Z,-0.69
2023-01-29T18:10:15.597Z,-0.71
2023-01-29T18:12:43.198Z,-0.75
2023-01-29T18:15:13.161Z,-0.76
2023-01-29T18:17:41.266Z,-0.77
2023-01-29T18:20:17.888Z,-0.89
2023-01-29T18:22:45.655Z,-0.95
2023-01-29T18:25:13.330Z,-0.99
2023-01-29T18:27:40.948Z,-1.03
2023-01-29T18:30:12.804Z,-1.09
2023-01-29T18:32:40.551Z,-1.08
2023-01-29T18:35:09.278Z,-1.15
2023-01-29T18:37:36.973Z,-1.19
2023-01-29T18:40:05.808Z,-1.21
2023-01-29T18:42:35.939Z,-1.21
2023-01-29T18:45:03.721Z,-1.23
2023-01-29T18:47:32.766Z,-1.25
2023-01-29T18:50:00.416Z,-1.23
2023-01-29T18:52:28.079Z,-1.27
2023-01-29T18:54:55.724Z,-1.30
2023-01-29T18:58:27.923Z,-1.31
2023-01-29T19:00:12.260Z,-1.40
2023-01-29T19:02:42.954Z,-1.43
2023-01-29T19:05:10.977Z,-1.44
2023-01-29T19:07:38.857Z,-1.43
2023-01-29T19:10:09.372Z,-1.52
2023-01-29T19:12:38.099Z,-1.57
2023-01-29T19:15:06.793Z,-1.62
2023-01-29T19:17:34.742Z,-1.62
2023-01-29T19:20:04.730Z,-1.63
2023-01-29T19:22:32.576Z,-1.61
2023-01-29T19:25:00.313Z,-1.64
2023-01-29T19:27:30.417Z,-1.69
2023-01-29T19:29:58.215Z,-1.75
2023-01-29T19:32:25.966Z,-1.78
2023-01-29T19:34:53.615Z,-1.81
2023-01-29T19:37:22.701Z,-1.82
2023-01-29T19:39:50.340Z,-1.84
2023-01-29T19:42:19.362Z,-1.93
2023-01-29T19:44:47.068Z,-1.96
2023-01-29T19:47:15.052Z,-1.91
2023-01-29T19:49:42.828Z,-1.90
2023-01-29T19:52:14.880Z,-1.94
2023-01-29T19:54:46.237Z,-1.95
2023-01-29T19:57:13.931Z,-1.95
2023-01-29T19:59:45.623Z,-1.93
2023-01-29T20:02:13.516Z,-1.95
2023-01-29T20:04:41.555Z,-1.94
2023-01-29T20:07:11.294Z,-2.08
2023-01-29T20:09:38.954Z,-2.14
2023-01-29T20:12:08.796Z,-2.15
2023-01-29T20:14:36.483Z,-2.17
2023-01-29T20:17:05.954Z,-2.19
2023-01-29T20:19:35.893Z,-2.19
2023-01-29T20:22:03.930Z,-2.19
2023-01-29T20:24:32.154Z,-2.16
2023-01-29T20:26:59.988Z,-2.14
2023-01-29T20:29:29.061Z,-2.14
2023-01-29T20:31:57.307Z,-2.17
2023-01-29T20:34:25.171Z,-2.20
2023-01-29T20:36:52.884Z,-2.21
2023-01-29T20:39:20.498Z,-2.26
2023-01-29T20:41:48.149Z,-2.28
2023-01-29T20:44:15.910Z,-2.26
2023-01-29T20:46:45.286Z,-2.27
2023-01-29T20:49:12.947Z,-2.30
2023-01-29T20:51:40.744Z,-2.30
2023-01-29T20:54:08.656Z,-2.29
2023-01-29T20:56:46.248Z,-2.32
2023-01-29T20:59:15.494Z,-2.41
2023-01-29T21:01:45.519Z,-2.38
2023-01-29T21:04:13.308Z,-2.35
2023-01-29T21:06:41.143Z,-2.32
2023-01-29T21:09:12.026Z,-2.32
2023-01-29T21:11:39.724Z,-2.40
2023-01-29T21:14:07.980Z,-2.42
2023-01-29T21:16:35.769Z,-2.46
2023-01-29T21:19:04.902Z,-2.45
2023-01-29T21:21:32.495Z,-2.47
2023-01-29T21:24:00.105Z,-2.47
2023-01-29T21:26:27.810Z,-2.51
2023-01-29T21:28:55.491Z,-2.55
2023-01-29T21:31:23.252Z,-2.60
2023-01-29T21:33:50.917Z,-2.58
2023-01-29T21:36:19.946Z,-2.59
2023-01-29T21:38:47.632Z,-2.61
2023-01-29T21:41:15.358Z,-2.64
2023-01-29T21:43:42.064Z,-2.66
2023-01-29T21:46:12.468Z,-2.70
2023-01-29T21:48:41.085Z,-2.70
2023-01-29T21:51:09.234Z,-2.76
2023-01-29T21:53:38.205Z,-2.76
2023-01-29T21:56:07.041Z,-2.75
2023-01-29T21:58:34.715Z,-2.69
2023-01-29T22:01:23.030Z,-2.67
2023-01-29T22:03:50.148Z,-2.69
2023-01-29T22:06:17.952Z,-2.68
2023-01-29T22:08:47.140Z,-2.69
2023-01-29T22:11:14.861Z,-2.73
2023-01-29T22:13:42.603Z,-2.75
2023-01-29T22:16:10.257Z,-2.80
2023-01-29T22:18:37.850Z,-2.78
2023-01-29T22:21:08.500Z,-2.78
2023-01-29T22:23:36.194Z,-2.77
2023-01-29T22:26:05.827Z,-2.75
2023-01-29T22:28:33.466Z,-2.75
2023-01-29T22:31:04.982Z,-2.75
2023-01-29T22:33:33.234Z,-2.72
2023-01-29T22:36:01.098Z,-2.74
2023-01-29T22:38:28.927Z,-2.76
2023-01-29T22:40:57.893Z,-2.76
2023-01-29T22:43:27.002Z,-2.87
2023-01-29T22:45:55.047Z,-2.90
2023-01-29T22:48:23.677Z,-2.93
2023-01-29T22:51:09.314Z,-2.96
2023-01-29T22:53:37.747Z,-2.95
2023-01-29T22:56:06.047Z,-2.99
2023-01-29T22:58:35.203Z,-3.05
2023-01-29T23:01:03.093Z,-3.08
2023-01-29T23:03:30.906Z,-3.09
2023-01-29T23:05:58.632Z,-3.12
2023-01-29T23:08:26.220Z,-3.20
2023-01-29T23:10:53.880Z,-3.22
2023-01-29T23:13:21.489Z,-3.25
2023-01-29T23:16:00.159Z,-3.24
2023-01-29T23:18:27.931Z,-3.26
2023-01-29T23:20:58.340Z,-3.24
2023-01-29T23:23:26.103Z,-3.27
2023-01-29T23:26:15.478Z,-3.26
2023-01-29T23:28:43.493Z,-3.29
2023-01-29T23:31:12.730Z,-3.29
2023-01-29T23:33:40.498Z,-3.36
2023-01-29T23:36:08.970Z,-3.31
2023-01-29T23:38:36.613Z,-3.30
2023-01-29T23:41:04.216Z,-3.26
2023-01-29T23:43:31.902Z,-3.25
2023-01-29T23:45:59.637Z,-3.25
2023-01-29T23:48:28.773Z,-3.26
2023-01-29T23:50:56.412Z,-3.25
2023-01-29T23:53:24.107Z,-3.26
2023-01-29T23:55:58.414Z,-3.26
2023-01-29T23:58:26.239Z,-3.27
